Time;durP1;ratioP1;P1;durP2;ratioP2;P2;SDS_P1;SDS_P2;PMS_P1;PMS_P2;Temp;Humidity;BMP_temperature;BMP_pressure;BME280_temperature;BME280_humidity;BME280_pressure;Samples;Min_cycle;Max_cycle;Signal;HPM_P1;HPM_P2
2022/04/24 00:02:01;;;;;;;2.60;0.80;;;20.20;99.90;;;;;;5032330;28;20049;-67
2022/04/24 00:04:28;;;;;;;3.25;1.05;;;20.50;99.90;;;;;;5032947;28;20057;-67
2022/04/24 00:06:55;;;;;;;7.20;1.02;;;21.00;99.90;;;;;;5032722;28;20397;-67
2022/04/24 00:09:23;;;;;;;1.92;0.70;;;21.40;99.90;;;;;;5034106;28;20029;-67
2022/04/24 00:11:51;;;;;;;3.13;1.10;;;21.10;99.90;;;;;;5032159;28;20041;-67
2022/04/24 00:14:19;;;;;;;3.35;1.17;;;21.20;99.90;;;;;;5031604;28;20133;-67
2022/04/24 00:16:46;;;;;;;5.07;0.80;;;21.10;99.90;;;;;;5030903;28;20085;-67
2022/04/24 00:19:15;;;;;;;4.10;1.23;;;21.40;99.90;;;;;;5029173;28;20389;-67
2022/04/24 00:21:42;;;;;;;5.50;1.15;;;21.30;99.90;;;;;;5016348;28;20083;-67
2022/04/24 00:24:10;;;;;;;3.20;0.65;;;21.50;99.90;;;;;;5013179;28;20060;-67
2022/04/24 00:26:38;;;;;;;6.07;0.85;;;21.60;99.90;;;;;;5020135;28;20025;-67
2022/04/24 00:29:05;;;;;;;1.05;0.50;;;21.90;99.90;;;;;;5032547;28;20045;-67
2022/04/24 00:31:33;;;;;;;1.48;0.40;;;22.20;99.90;;;;;;5031766;28;20029;-67
2022/04/24 00:34:00;;;;;;;2.08;0.40;;;22.40;99.90;;;;;;5033542;28;20029;-67
2022/04/24 00:36:27;;;;;;;4.57;0.63;;;22.40;99.90;;;;;;5031665;28;20022;-69
2022/04/24 00:38:54;;;;;;;1.52;0.30;;;22.70;99.90;;;;;;5033119;28;20025;-67
2022/04/24 00:41:22;;;;;;;2.65;0.47;;;22.20;99.90;;;;;;5029458;28;20035;-67
2022/04/24 00:43:54;;;;;;;2.92;0.60;;;22.30;99.90;;;;;;5018522;28;20505;-67
2022/04/24 00:46:51;;;;;;;4.43;0.55;;;22.70;99.90;;;;;;5018276;28;20021;-67
2022/04/24 00:49:19;;;;;;;2.60;0.38;;;22.20;99.90;;;;;;5025926;28;20068;-67
2022/04/24 00:51:46;;;;;;;2.42;0.20;;;21.40;99.90;;;;;;5031221;28;20029;-67
2022/04/24 00:54:13;;;;;;;1.83;0.50;;;20.90;99.90;;;;;;5021575;28;20030;-67
2022/04/24 00:56:42;;;;;;;2.00;0.30;;;20.70;99.90;;;;;;5020397;28;20505;-67
2022/04/24 00:59:12;;;;;;;2.20;0.30;;;20.60;99.90;;;;;;5032307;28;20037;-67
2022/04/24 01:01:41;;;;;;;4.82;0.47;;;21.10;99.90;;;;;;5019731;28;20042;-67
2022/04/24 01:04:10;;;;;;;1.00;0.13;;;21.90;99.90;;;;;;4997693;28;20045;-68
2022/04/24 01:06:43;;;;;;;2.20;0.40;;;22.50;99.90;;;;;;5019760;28;20018;-67
2022/04/24 01:09:10;;;;;;;3.08;0.32;;;22.50;99.90;;;;;;5033047;28;20486;-67
2022/04/24 01:11:38;;;;;;;1.98;0.30;;;22.70;99.90;;;;;;5022598;28;20419;-67
2022/04/24 01:14:06;;;;;;;2.78;0.20;;;22.80;99.90;;;;;;5014243;28;20034;-67
2022/04/24 01:16:35;;;;;;;1.75;0.10;;;22.90;99.90;;;;;;5030084;28;20071;-67
2022/04/24 01:19:04;;;;;;;2.10;0.13;;;23.40;99.90;;;;;;5032803;28;20022;-67
2022/04/24 01:21:35;;;;;;;1.40;0.10;;;23.20;99.90;;;;;;5024258;28;20080;-67
2022/04/24 01:24:06;;;;;;;1.02;0.30;;;23.50;99.90;;;;;;5012638;28;20394;-67
2022/04/24 01:26:35;;;;;;;1.25;0.10;;;23.50;99.90;;;;;;5026861;28;20022;-68
2022/04/24 01:29:04;;;;;;;0.65;0.30;;;23.40;99.90;;;;;;5032926;28;20060;-67
2022/04/24 01:31:32;;;;;;;3.10;0.50;;;23.20;99.90;;;;;;5017107;28;20026;-67
2022/04/24 01:34:00;;;;;;;2.03;0.20;;;23.10;99.90;;;;;;5013087;28;20022;-67
2022/04/24 01:36:28;;;;;;;1.52;0.20;;;23.30;99.90;;;;;;5021287;28;20030;-67
2022/04/24 01:38:58;;;;;;;2.75;0.20;;;23.30;99.90;;;;;;5028306;28;20088;-67
2022/04/24 01:41:25;;;;;;;0.45;0.10;;;23.50;99.90;;;;;;5029453;28;20024;-67
2022/04/24 01:43:53;;;;;;;2.05;0.10;;;23.40;99.90;;;;;;5035006;28;20059;-67
2022/04/24 01:46:20;;;;;;;2.78;0.40;;;23.70;99.90;;;;;;5033052;28;20033;-67
2022/04/24 01:48:47;;;;;;;1.05;0.10;;;23.70;99.90;;;;;;5032679;28;20029;-67
2022/04/24 01:51:15;;;;;;;0.85;0.10;;;24.10;99.90;;;;;;5031656;28;20026;-67
2022/04/24 01:53:43;;;;;;;2.15;0.50;;;24.40;99.90;;;;;;5034699;28;20029;-68
2022/04/24 01:56:11;;;;;;;0.30;0.10;;;23.80;99.90;;;;;;5025731;28;20435;-67
2022/04/24 01:58:40;;;;;;;0.88;0.20;;;23.80;99.90;;;;;;5036508;28;20101;-67
2022/04/24 02:01:08;;;;;;;1.17;0.10;;;23.80;99.90;;;;;;5034507;28;20021;-67
2022/04/24 02:03:36;;;;;;;1.10;0.10;;;24.20;99.90;;;;;;5035047;28;20022;-68
2022/04/24 02:06:05;;;;;;;1.60;0.20;;;24.20;99.90;;;;;;5033289;28;20019;-68
2022/04/24 02:08:35;;;;;;;2.10;0.13;;;23.50;99.90;;;;;;5036115;28;20034;-68
2022/04/24 02:11:03;;;;;;;0.20;0.05;;;23.40;99.90;;;;;;5015206;28;20406;-67
2022/04/24 02:13:30;;;;;;;2.00;0.25;;;23.60;99.90;;;;;;5032524;28;20122;-67
2022/04/24 02:15:58;;;;;;;0.52;0.10;;;23.80;99.90;;;;;;5034682;28;20762;-67
2022/04/24 02:18:25;;;;;;;1.00;0.10;;;23.70;99.90;;;;;;5036087;28;20074;-67
2022/04/24 02:20:52;;;;;;;1.50;0.10;;;24.10;99.90;;;;;;5032861;28;20134;-67
2022/04/24 02:23:20;;;;;;;1.20;0.20;;;23.60;99.90;;;;;;5020663;28;20025;-67
2022/04/24 02:25:47;;;;;;;1.10;0.20;;;23.90;99.90;;;;;;5029948;28;20025;-67
2022/04/24 02:28:14;;;;;;;0.30;0.10;;;23.90;99.90;;;;;;5037106;28;20029;-67
2022/04/24 02:30:42;;;;;;;3.53;0.30;;;24.60;99.90;;;;;;5010001;28;20022;-68
2022/04/24 02:33:09;;;;;;;1.95;0.10;;;24.90;99.90;;;;;;5033449;28;20026;-67
2022/04/24 02:35:37;;;;;;;1.05;0.10;;;24.50;99.90;;;;;;5034295;28;20021;-67
2022/04/24 02:38:04;;;;;;;1.05;0.20;;;23.80;99.90;;;;;;5033998;28;20108;-67
2022/04/24 02:40:31;;;;;;;1.55;0.10;;;24.50;99.90;;;;;;5021648;28;20024;-68
2022/04/24 02:42:59;;;;;;;1.52;0.17;;;24.20;99.90;;;;;;5030266;28;20032;-67
2022/04/24 02:45:26;;;;;;;3.13;0.25;;;23.90;99.90;;;;;;5016227;28;20056;-68
2022/04/24 02:47:53;;;;;;;1.20;0.13;;;24.20;99.90;;;;;;5030955;28;20045;-68
2022/04/24 02:50:23;;;;;;;0.73;0.20;;;24.60;99.90;;;;;;5018097;28;20057;-68
2022/04/24 02:52:52;;;;;;;1.65;0.10;;;24.40;99.90;;;;;;5033377;28;20033;-68
2022/04/24 02:55:20;;;;;;;1.50;0.25;;;24.80;99.90;;;;;;5035693;28;20017;-67
2022/04/24 02:57:48;;;;;;;1.27;0.17;;;24.40;99.90;;;;;;5034299;28;20028;-68
2022/04/24 03:00:22;;;;;;;2.00;0.10;;;24.20;99.90;;;;;;5033715;28;20478;-67
2022/04/24 03:02:51;;;;;;;2.45;0.28;;;23.90;99.90;;;;;;5032729;28;20486;-68
2022/04/24 03:05:23;;;;;;;3.65;0.20;;;23.40;99.90;;;;;;5034912;28;20429;-67
2022/04/24 03:07:51;;;;;;;2.67;0.10;;;22.80;99.90;;;;;;5032757;28;20040;-67
2022/04/24 03:10:19;;;;;;;1.48;0.17;;;22.20;99.90;;;;;;5034944;28;20033;-67
2022/04/24 03:12:47;;;;;;;1.73;0.30;;;22.00;99.90;;;;;;5032481;28;20037;-68
2022/04/24 03:15:15;;;;;;;1.73;0.20;;;22.10;99.90;;;;;;5034716;28;20043;-67
2022/04/24 03:17:43;;;;;;;1.08;0.20;;;22.50;99.90;;;;;;5032961;28;20056;-67
2022/04/24 03:20:13;;;;;;;2.58;0.22;;;23.00;99.90;;;;;;5027588;28;20475;-67
2022/04/24 03:22:40;;;;;;;0.60;0.10;;;23.40;99.90;;;;;;5029152;28;20021;-67
2022/04/24 03:25:09;;;;;;;1.08;0.10;;;22.60;99.90;;;;;;5032653;28;20473;-67
2022/04/24 03:27:37;;;;;;;2.40;0.20;;;22.70;99.90;;;;;;5026389;28;20022;-67
2022/04/24 03:30:06;;;;;;;2.53;0.40;;;23.40;99.90;;;;;;5029555;28;20105;-68
2022/04/24 03:32:34;;;;;;;4.15;0.28;;;23.00;99.90;;;;;;5026089;28;20030;-67
2022/04/24 03:35:03;;;;;;;0.95;0.22;;;22.70;99.90;;;;;;5021379;28;20084;-68
2022/04/24 03:37:30;;;;;;;4.22;0.30;;;22.20;99.90;;;;;;5027316;28;20021;-67
2022/04/24 03:39:57;;;;;;;1.55;0.17;;;22.30;99.90;;;;;;5026745;28;20034;-67
2022/04/24 03:42:26;;;;;;;1.85;0.40;;;22.50;99.90;;;;;;5026343;28;20385;-67
2022/04/24 03:44:57;;;;;;;3.00;0.22;;;22.60;99.90;;;;;;5028500;28;20112;-67
2022/04/24 03:47:25;;;;;;;2.53;0.45;;;22.40;99.90;;;;;;5017969;28;20388;-67
2022/04/24 03:49:53;;;;;;;1.80;0.52;;;22.20;99.90;;;;;;5028356;28;20065;-67
2022/04/24 03:52:20;;;;;;;1.42;0.35;;;22.00;99.90;;;;;;5030248;28;20025;-67
2022/04/24 03:54:47;;;;;;;3.88;0.20;;;22.10;99.90;;;;;;5026269;28;20556;-67
2022/04/24 03:57:15;;;;;;;0.98;0.35;;;21.80;99.90;;;;;;5029714;28;20089;-67
2022/04/24 03:59:42;;;;;;;1.48;0.10;;;21.90;99.90;;;;;;5028954;28;20029;-66
2022/04/24 04:02:09;;;;;;;2.30;0.32;;;22.00;99.90;;;;;;5025816;28;20136;-67
2022/04/24 04:04:36;;;;;;;0.55;0.20;;;22.20;99.90;;;;;;5023189;28;20045;-67
2022/04/24 04:07:04;;;;;;;2.17;0.40;;;22.00;99.90;;;;;;5024287;28;20017;-67
2022/04/24 04:09:32;;;;;;;1.08;0.15;;;22.00;99.90;;;;;;5020423;28;20049;-67
2022/04/24 04:11:59;;;;;;;11.80;0.50;;;21.90;99.90;;;;;;5023904;28;20022;-67
2022/04/24 04:14:26;;;;;;;1.70;0.20;;;21.80;99.90;;;;;;5025228;28;20029;-67
2022/04/24 04:16:54;;;;;;;3.50;0.20;;;21.60;99.90;;;;;;5024072;28;20037;-67
2022/04/24 04:19:21;;;;;;;1.50;0.22;;;21.50;99.90;;;;;;5026348;28;20041;-67
2022/04/24 04:21:48;;;;;;;2.60;0.43;;;21.60;99.90;;;;;;5026144;28;20040;-67
2022/04/24 04:24:15;;;;;;;3.70;0.30;;;21.80;99.90;;;;;;5027122;28;20025;-67
2022/04/24 04:26:44;;;;;;;2.08;0.20;;;21.90;99.90;;;;;;5024190;28;20022;-67
2022/04/24 04:29:11;;;;;;;1.98;0.20;;;21.80;99.90;;;;;;5024438;28;20052;-67
2022/04/24 04:31:38;;;;;;;3.03;0.52;;;21.80;99.90;;;;;;5023686;28;20505;-67
2022/04/24 04:34:06;;;;;;;1.13;0.50;;;21.80;99.90;;;;;;5027205;28;20363;-67
2022/04/24 04:36:33;;;;;;;1.00;0.20;;;21.90;99.90;;;;;;5023572;28;20102;-67
2022/04/24 04:39:00;;;;;;;0.70;0.20;;;21.90;99.90;;;;;;5029291;28;20026;-67
2022/04/24 04:41:27;;;;;;;2.80;0.20;;;21.80;99.90;;;;;;5025170;28;20158;-67
2022/04/24 04:43:55;;;;;;;1.48;0.10;;;21.80;99.90;;;;;;5027678;28;20090;-67
2022/04/24 04:46:22;;;;;;;3.50;0.10;;;21.70;99.90;;;;;;5024250;28;20021;-67
2022/04/24 04:48:49;;;;;;;0.73;0.10;;;21.50;99.90;;;;;;5009597;28;20090;-67
2022/04/24 04:51:16;;;;;;;0.77;0.00;;;21.40;99.90;;;;;;5022318;28;20048;-67
2022/04/24 04:53:45;;;;;;;0.32;0.08;;;21.40;99.90;;;;;;5027552;28;20063;-67
2022/04/24 04:56:13;;;;;;;0.75;0.10;;;21.30;99.90;;;;;;5023295;28;20486;-67
2022/04/24 04:58:40;;;;;;;1.05;0.20;;;21.40;99.90;;;;;;5023208;28;20857;-67
2022/04/24 05:01:07;;;;;;;1.27;0.10;;;21.40;99.90;;;;;;5025872;28;20390;-67
2022/04/24 05:03:35;;;;;;;0.52;0.10;;;21.30;99.90;;;;;;5025675;28;20037;-67
2022/04/24 05:06:02;;;;;;;2.47;0.57;;;21.30;99.90;;;;;;5022504;28;20102;-67
2022/04/24 05:08:29;;;;;;;1.40;0.20;;;21.30;99.90;;;;;;5028780;28;20529;-67
2022/04/24 05:10:57;;;;;;;1.50;0.28;;;21.30;99.90;;;;;;5025239;28;20080;-67
2022/04/24 05:13:24;;;;;;;1.65;0.03;;;21.20;99.90;;;;;;5022459;28;20056;-67
2022/04/24 05:15:52;;;;;;;0.50;0.10;;;21.20;99.90;;;;;;5026733;28;20113;-67
2022/04/24 05:18:19;;;;;;;0.20;0.00;;;21.10;99.90;;;;;;5025612;28;20018;-67
2022/04/24 05:20:46;;;;;;;1.95;0.32;;;21.10;99.90;;;;;;5022833;28;20450;-67
2022/04/24 05:23:14;;;;;;;1.75;0.10;;;21.10;99.90;;;;;;5024260;28;21780;-66
2022/04/24 05:25:41;;;;;;;0.63;0.10;;;21.10;99.90;;;;;;5024464;28;20103;-68
2022/04/24 05:28:08;;;;;;;1.30;0.13;;;21.00;99.90;;;;;;5025708;28;20030;-67
2022/04/24 05:30:35;;;;;;;0.90;0.10;;;21.10;99.90;;;;;;5024622;28;20025;-67
2022/04/24 05:33:04;;;;;;;1.85;0.20;;;21.00;99.90;;;;;;5025247;28;20022;-68
2022/04/24 05:35:31;;;;;;;0.63;0.10;;;21.00;99.90;;;;;;5028847;28;20753;-67
2022/04/24 05:37:58;;;;;;;1.48;0.17;;;21.00;99.90;;;;;;5023639;28;20105;-68
2022/04/24 05:40:26;;;;;;;0.50;0.20;;;21.00;99.90;;;;;;5037656;28;20032;-67
2022/04/24 05:42:54;;;;;;;1.15;0.10;;;21.00;99.90;;;;;;5031931;28;20029;-67
2022/04/24 05:45:24;;;;;;;0.38;0.10;;;21.00;99.90;;;;;;5026308;28;20096;-67
2022/04/24 05:47:54;;;;;;;0.43;0.20;;;21.00;99.90;;;;;;5024686;28;20029;-67
2022/04/24 05:50:23;;;;;;;1.50;0.10;;;20.90;99.90;;;;;;5037384;28;20026;-67
2022/04/24 05:52:54;;;;;;;0.75;0.15;;;20.90;99.90;;;;;;5029434;28;20035;-67
2022/04/24 05:55:21;;;;;;;0.43;0.10;;;20.90;99.90;;;;;;5029880;28;20033;-67
2022/04/24 05:57:49;;;;;;;0.40;0.00;;;20.80;99.90;;;;;;5028377;28;20052;-67
2022/04/24 06:00:17;;;;;;;0.93;0.10;;;20.70;99.90;;;;;;5039773;28;20075;-67
2022/04/24 06:02:45;;;;;;;1.23;0.25;;;20.80;99.90;;;;;;5031367;28;20053;-67
2022/04/24 06:05:12;;;;;;;2.30;0.10;;;20.80;99.90;;;;;;5026848;28;20029;-67
2022/04/24 06:07:40;;;;;;;2.03;0.68;;;20.80;99.90;;;;;;5013427;28;20518;-67
2022/04/24 06:10:10;;;;;;;0.50;0.10;;;20.70;99.90;;;;;;5025734;28;20032;-67
2022/04/24 06:12:54;;;;;;;1.73;0.10;;;20.50;99.90;;;;;;5025625;28;20100;-67
2022/04/24 06:15:24;;;;;;;0.20;0.10;;;20.50;99.90;;;;;;5027437;28;20088;-67
2022/04/24 06:17:53;;;;;;;2.67;0.20;;;20.50;99.90;;;;;;5027718;28;20566;-67
2022/04/24 06:20:23;;;;;;;1.85;0.20;;;20.60;99.90;;;;;;5033561;28;20072;-67
2022/04/24 06:22:55;;;;;;;6.10;0.50;;;20.50;99.90;;;;;;5030134;28;20036;-67
2022/04/24 06:25:35;;;;;;;0.60;0.20;;;20.60;99.90;;;;;;5031428;28;20101;-67
2022/04/24 06:28:04;;;;;;;0.70;0.20;;;20.50;99.90;;;;;;5030200;28;20033;-68
2022/04/24 06:30:32;;;;;;;2.17;0.30;;;20.60;99.90;;;;;;5023368;28;20025;-67
2022/04/24 06:33:03;;;;;;;2.40;0.30;;;20.60;99.90;;;;;;5029180;28;20125;-67
2022/04/24 06:35:30;;;;;;;3.10;0.68;;;20.60;99.90;;;;;;5034377;28;20028;-67
2022/04/24 06:37:57;;;;;;;2.45;0.68;;;20.50;99.90;;;;;;5036859;28;20099;-68
2022/04/24 06:40:26;;;;;;;3.90;0.30;;;20.50;99.90;;;;;;5026122;28;20029;-68
2022/04/24 06:42:53;;;;;;;3.72;0.65;;;20.40;99.90;;;;;;5034146;28;20029;-67
2022/04/24 06:45:28;;;;;;;2.45;0.75;;;20.30;99.90;;;;;;5028246;28;20658;-67
2022/04/24 06:48:07;;;;;;;3.42;0.70;;;20.20;99.90;;;;;;5035187;28;20041;-67
2022/04/24 06:50:35;;;;;;;3.05;0.88;;;20.10;99.90;;;;;;5024708;28;20033;-67
2022/04/24 06:53:04;;;;;;;3.17;0.45;;;20.10;99.90;;;;;;5027674;28;20124;-67
2022/04/24 06:55:33;;;;;;;3.03;0.90;;;20.00;99.90;;;;;;5025709;28;20026;-67
2022/04/24 06:58:01;;;;;;;5.32;1.35;;;19.90;99.90;;;;;;5029589;28;20493;-67
2022/04/24 07:00:30;;;;;;;4.30;0.82;;;19.90;99.90;;;;;;5025585;28;20033;-67
2022/04/24 07:02:58;;;;;;;5.50;0.82;;;19.80;99.90;;;;;;5015225;28;20533;-67
2022/04/24 07:05:27;;;;;;;3.17;0.88;;;19.70;99.90;;;;;;5006928;28;20022;-67
2022/04/24 07:07:55;;;;;;;5.10;0.50;;;19.60;99.90;;;;;;5007931;28;20041;-67
2022/04/24 07:10:22;;;;;;;4.07;0.68;;;19.50;99.90;;;;;;5012671;28;20117;-67
2022/04/24 07:12:52;;;;;;;5.05;2.03;;;19.50;99.90;;;;;;5008774;28;20025;-66
2022/04/24 07:15:21;;;;;;;4.22;0.47;;;19.40;99.90;;;;;;5011531;28;20026;-66
2022/04/24 07:17:50;;;;;;;2.30;0.60;;;19.40;99.90;;;;;;5012713;28;20080;-66
2022/04/24 07:20:19;;;;;;;2.05;0.52;;;19.40;99.90;;;;;;5010657;28;20439;-67
2022/04/24 07:22:47;;;;;;;3.60;0.55;;;19.30;99.90;;;;;;5016043;28;21078;-67
2022/04/24 07:25:15;;;;;;;3.72;0.40;;;19.40;99.90;;;;;;5011161;28;20109;-67
2022/04/24 07:27:43;;;;;;;3.42;0.63;;;19.30;99.90;;;;;;5012576;28;20017;-67
2022/04/24 07:30:14;;;;;;;4.43;0.68;;;19.20;99.90;;;;;;5012028;28;20108;-67
2022/04/24 07:32:47;;;;;;;5.05;0.95;;;19.20;99.90;;;;;;5011864;28;20056;-67
2022/04/24 07:35:19;;;;;;;1.73;0.50;;;19.20;99.90;;;;;;4996423;28;20537;-67
2022/04/24 07:37:47;;;;;;;4.72;0.98;;;19.20;99.90;;;;;;5011871;28;20053;-67
2022/04/24 07:40:16;;;;;;;3.00;0.40;;;19.20;99.90;;;;;;5012768;28;20572;-67
2022/04/24 07:42:49;;;;;;;3.08;0.60;;;19.20;99.90;;;;;;5004817;28;20426;-67
2022/04/24 07:45:30;;;;;;;6.38;1.00;;;19.30;99.90;;;;;;5013337;28;20509;-67
2022/04/24 07:47:59;;;;;;;2.90;0.60;;;19.20;99.90;;;;;;5023058;28;20574;-67
2022/04/24 07:50:31;;;;;;;1.60;0.40;;;19.20;99.90;;;;;;5017165;28;20414;-67
2022/04/24 07:52:58;;;;;;;2.50;0.68;;;19.30;99.90;;;;;;5010973;28;20058;-68
2022/04/24 07:55:26;;;;;;;3.55;1.35;;;19.20;99.90;;;;;;5007264;28;20490;-68
2022/04/24 07:57:57;;;;;;;6.47;0.60;;;19.20;99.90;;;;;;5009802;28;20034;-68
2022/04/24 08:00:27;;;;;;;2.55;0.57;;;19.20;99.90;;;;;;4989331;28;20399;-67
2022/04/24 08:03:01;;;;;;;2.95;0.50;;;19.10;99.90;;;;;;5010615;28;20108;-68
2022/04/24 08:05:36;;;;;;;4.88;0.50;;;19.10;99.90;;;;;;5013568;28;20060;-68
2022/04/24 08:08:06;;;;;;;3.45;0.95;;;19.00;99.90;;;;;;4978104;28;20395;-68
2022/04/24 08:10:39;;;;;;;4.10;0.65;;;19.00;99.90;;;;;;4977972;28;20034;-68
2022/04/24 08:13:06;;;;;;;2.45;0.80;;;19.00;99.90;;;;;;5011013;28;20387;-68
2022/04/24 08:15:35;;;;;;;3.78;0.77;;;19.00;99.90;;;;;;5010691;28;20033;-68
2022/04/24 08:18:04;;;;;;;2.97;0.40;;;19.00;99.90;;;;;;5014941;28;20049;-68
2022/04/24 08:20:34;;;;;;;3.00;0.73;;;19.00;99.90;;;;;;5013155;28;20021;-68
2022/04/24 08:23:03;;;;;;;2.42;0.85;;;19.00;99.90;;;;;;5011187;28;20030;-68
2022/04/24 08:25:35;;;;;;;2.92;0.80;;;19.00;99.90;;;;;;5011098;28;20029;-68
2022/04/24 08:28:08;;;;;;;5.35;0.88;;;18.90;99.90;;;;;;5012375;28;20057;-68
2022/04/24 08:30:37;;;;;;;6.03;1.27;;;18.90;99.90;;;;;;5013445;28;20030;-68
2022/04/24 08:33:05;;;;;;;1.45;0.47;;;19.00;99.90;;;;;;5013748;28;20052;-68
2022/04/24 08:35:32;;;;;;;4.38;1.05;;;18.80;99.90;;;;;;5013431;28;20022;-67
2022/04/24 08:38:00;;;;;;;5.65;0.70;;;18.70;99.90;;;;;;4995615;28;20076;-68
2022/04/24 08:40:27;;;;;;;3.13;0.70;;;18.80;99.90;;;;;;5013971;28;20032;-68
2022/04/24 08:42:55;;;;;;;2.20;0.50;;;18.80;99.90;;;;;;5005195;28;20087;-68
2022/04/24 08:45:31;;;;;;;2.05;0.70;;;18.80;99.90;;;;;;5011626;28;20036;-68
2022/04/24 08:48:01;;;;;;;2.85;0.50;;;18.70;99.90;;;;;;5011324;28;20029;-67
2022/04/24 08:50:31;;;;;;;5.50;0.70;;;18.70;99.90;;;;;;5011468;28;20022;-68
2022/04/24 08:52:58;;;;;;;3.25;0.93;;;18.70;99.90;;;;;;5010704;28;20029;-68
2022/04/24 08:55:30;;;;;;;4.47;0.50;;;18.70;99.90;;;;;;5011678;28;20024;-67
2022/04/24 08:57:58;;;;;;;3.30;0.70;;;18.70;99.90;;;;;;5012994;28;20049;-68
2022/04/24 09:00:27;;;;;;;3.08;0.68;;;18.60;99.90;;;;;;5019129;28;20037;-67
2022/04/24 09:02:57;;;;;;;1.48;0.50;;;18.70;99.90;;;;;;5004272;28;20100;-68
2022/04/24 09:05:25;;;;;;;2.47;0.32;;;18.70;99.90;;;;;;4999517;28;20057;-68
2022/04/24 09:07:55;;;;;;;9.75;0.88;;;18.60;99.90;;;;;;5008194;28;20041;-68
2022/04/24 09:10:22;;;;;;;0.93;0.30;;;18.60;99.90;;;;;;5008271;28;20048;-68
2022/04/24 09:12:56;;;;;;;3.08;0.40;;;18.50;99.90;;;;;;5005464;28;20045;-68
2022/04/24 09:15:24;;;;;;;1.40;0.15;;;18.50;99.90;;;;;;5009475;28;20049;-68
2022/04/24 09:18:00;;;;;;;1.23;0.22;;;18.30;99.90;;;;;;5004122;28;20022;-68
2022/04/24 09:20:31;;;;;;;1.75;0.20;;;18.20;99.90;;;;;;4987904;28;20033;-68
2022/04/24 09:23:03;;;;;;;2.78;0.82;;;18.10;99.90;;;;;;5009514;28;20144;-68
2022/04/24 09:25:40;;;;;;;2.42;0.43;;;18.00;99.90;;;;;;5006348;28;20074;-68
2022/04/24 09:28:08;;;;;;;2.70;0.55;;;18.00;99.90;;;;;;5008196;28;20049;-68
2022/04/24 09:30:36;;;;;;;1.48;0.30;;;18.00;99.90;;;;;;5008230;28;20387;-68
2022/04/24 09:33:06;;;;;;;1.83;0.60;;;17.90;99.90;;;;;;5005950;28;20107;-67
2022/04/24 09:35:36;;;;;;;3.58;0.57;;;17.90;99.90;;;;;;5008698;28;20026;-67
2022/04/24 09:38:20;;;;;;;2.10;1.00;;;17.90;99.90;;;;;;5009276;28;20034;-68
2022/04/24 09:40:49;;;;;;;3.17;0.63;;;17.80;99.90;;;;;;5011949;28;20034;-67
2022/04/24 09:43:19;;;;;;;1.60;0.75;;;17.80;99.90;;;;;;5011829;28;20097;-67
2022/04/24 09:45:54;;;;;;;2.67;0.60;;;17.80;99.90;;;;;;5010450;28;20061;-67
2022/04/24 09:48:22;;;;;;;3.40;0.70;;;17.80;99.90;;;;;;5010348;28;20041;-67
2022/04/24 09:50:51;;;;;;;4.40;0.80;;;17.80;99.90;;;;;;5017246;28;20390;-67
2022/04/24 09:53:21;;;;;;;3.53;0.95;;;17.80;99.90;;;;;;4993878;28;20030;-67
2022/04/24 09:55:49;;;;;;;5.60;0.93;;;17.90;99.90;;;;;;5012544;28;20087;-67
2022/04/24 09:58:17;;;;;;;2.13;0.82;;;17.80;99.90;;;;;;5014562;28;20030;-67
2022/04/24 10:00:45;;;;;;;1.73;1.13;;;17.90;99.90;;;;;;5015891;28;20474;-67
2022/04/24 10:03:16;;;;;;;3.85;0.80;;;17.90;99.90;;;;;;5010418;28;20046;-67
2022/04/24 10:05:45;;;;;;;1.73;0.60;;;17.90;99.90;;;;;;5009999;28;20022;-67
2022/04/24 10:08:13;;;;;;;1.88;0.40;;;17.90;99.90;;;;;;5016158;28;20026;-67
2022/04/24 10:10:40;;;;;;;1.83;0.70;;;17.90;99.90;;;;;;5015944;28;20100;-67
2022/04/24 10:13:10;;;;;;;1.92;0.47;;;17.90;99.90;;;;;;5014552;28;20109;-67
2022/04/24 10:16:12;;;;;;;1.83;1.00;;;17.80;99.90;;;;;;5006512;28;20538;-67
2022/04/24 10:19:11;;;;;;;3.75;0.70;;;17.90;99.90;;;;;;5003422;28;20053;-67
2022/04/24 10:22:12;;;;;;;2.45;0.85;;;17.90;99.90;;;;;;4975953;28;20526;-67
2022/04/24 10:24:41;;;;;;;4.45;0.70;;;17.90;99.90;;;;;;5009436;28;20054;-67
2022/04/24 10:27:11;;;;;;;1.42;0.60;;;17.80;99.90;;;;;;5024829;28;20363;-67
2022/04/24 10:29:49;;;;;;;1.75;0.90;;;17.80;99.90;;;;;;5015347;28;20041;-67
2022/04/24 10:32:32;;;;;;;2.95;0.80;;;17.80;99.90;;;;;;5003122;28;20023;-68
2022/04/24 10:35:00;;;;;;;1.67;1.00;;;17.80;99.90;;;;;;5005962;28;20030;-68
2022/04/24 10:37:31;;;;;;;1.92;0.90;;;17.80;99.90;;;;;;5015114;28;20037;-67
2022/04/24 10:40:00;;;;;;;3.30;1.00;;;17.80;99.90;;;;;;5012957;28;20022;-68
2022/04/24 10:42:38;;;;;;;1.60;0.77;;;17.80;99.90;;;;;;5013934;28;20026;-68
2022/04/24 10:45:14;;;;;;;2.72;0.90;;;17.70;99.90;;;;;;5015594;28;20026;-68
2022/04/24 10:47:52;;;;;;;2.40;0.90;;;17.80;99.90;;;;;;5014070;28;20386;-68
2022/04/24 10:50:21;;;;;;;2.70;0.60;;;17.80;99.90;;;;;;5004499;28;20026;-67
2022/04/24 10:52:50;;;;;;;2.85;0.63;;;17.70;99.90;;;;;;5013933;28;20497;-67
2022/04/24 10:55:23;;;;;;;4.18;0.90;;;17.60;99.90;;;;;;5015023;28;20041;-67
2022/04/24 10:57:57;;;;;;;3.50;0.88;;;17.60;99.90;;;;;;5014671;28;20025;-67
2022/04/24 11:00:34;;;;;;;2.00;0.93;;;17.60;99.90;;;;;;5014384;28;20030;-67
2022/04/24 11:03:37;;;;;;;3.88;1.10;;;17.60;99.90;;;;;;5000795;28;20084;-67
2022/04/24 11:06:04;;;;;;;1.95;0.63;;;17.50;99.90;;;;;;5034815;28;20029;-68
2022/04/24 11:08:42;;;;;;;2.95;0.70;;;17.50;99.90;;;;;;5015789;28;20030;-68
2022/04/24 11:11:13;;;;;;;1.75;0.63;;;17.50;99.90;;;;;;5032216;28;20025;-67
2022/04/24 11:13:41;;;;;;;2.35;0.82;;;17.50;99.90;;;;;;5016904;28;20049;-67
2022/04/24 11:16:08;;;;;;;2.22;1.05;;;17.50;99.90;;;;;;5030637;28;20022;-68
2022/04/24 11:18:36;;;;;;;4.93;1.10;;;17.50;99.90;;;;;;5033312;28;20053;-67
2022/04/24 11:21:06;;;;;;;2.28;0.80;;;17.40;99.90;;;;;;5025125;28;20040;-69
2022/04/24 11:23:40;;;;;;;3.42;1.17;;;17.50;99.90;;;;;;5027149;28;20028;-68
2022/04/24 11:26:09;;;;;;;4.70;0.50;;;17.50;99.90;;;;;;5032555;28;20033;-68
2022/04/24 11:28:39;;;;;;;2.25;0.60;;;17.40;99.90;;;;;;5026097;28;20084;-69
2022/04/24 11:31:18;;;;;;;3.35;0.70;;;17.40;99.90;;;;;;5032326;28;20109;-68
2022/04/24 11:33:53;;;;;;;2.92;0.70;;;17.40;99.90;;;;;;5033659;28;20032;-68
2022/04/24 11:36:22;;;;;;;2.15;0.57;;;17.40;99.90;;;;;;5033612;28;20053;-68
2022/04/24 11:38:50;;;;;;;3.45;0.98;;;17.30;99.90;;;;;;5014922;28;20025;-68
2022/04/24 11:41:20;;;;;;;2.78;0.95;;;17.30;99.90;;;;;;5033502;28;20032;-68
2022/04/24 11:43:48;;;;;;;2.90;0.80;;;17.40;99.90;;;;;;5033606;28;20022;-68
2022/04/24 11:51:53;;;;;;;1.60;0.50;;;17.30;99.90;;;;;;5024034;28;20045;-68
2022/04/24 11:54:21;;;;;;;0.85;0.43;;;17.30;99.90;;;;;;5033545;28;20105;-68
2022/04/24 11:56:52;;;;;;;1.63;0.50;;;17.30;99.90;;;;;;5033932;28;20022;-68
2022/04/24 11:59:23;;;;;;;1.38;0.30;;;17.30;99.90;;;;;;5033575;28;20470;-70
2022/04/24 12:02:00;;;;;;;2.20;0.50;;;17.30;99.90;;;;;;5032030;28;20064;-69
2022/04/24 12:04:31;;;;;;;2.75;0.55;;;17.30;99.90;;;;;;5031482;28;20030;-69
2022/04/24 12:07:16;;;;;;;0.95;0.40;;;17.30;99.90;;;;;;5021444;28;20026;-69
2022/04/24 12:09:44;;;;;;;0.77;0.20;;;17.30;99.90;;;;;;5013518;28;20026;-67
2022/04/24 12:12:13;;;;;;;2.13;0.63;;;17.30;99.90;;;;;;5029792;28;20048;-66
2022/04/24 12:14:48;;;;;;;4.75;1.05;;;17.20;99.90;;;;;;5041522;28;20033;-67
2022/04/24 12:17:15;;;;;;;0.52;0.20;;;17.20;99.90;;;;;;5031430;28;20060;-67
2022/04/24 12:19:56;;;;;;;0.68;0.40;;;17.10;99.90;;;;;;5032934;28;20034;-66
2022/04/24 12:22:29;;;;;;;2.25;0.57;;;17.10;99.90;;;;;;5015521;28;20025;-67
2022/04/24 12:25:11;;;;;;;4.45;0.50;;;17.00;99.90;;;;;;5035927;28;20034;-67
2022/04/24 12:27:39;;;;;;;1.63;0.40;;;16.90;99.90;;;;;;5023142;28;20064;-69
2022/04/24 12:30:09;;;;;;;1.15;0.30;;;16.80;99.90;;;;;;5018214;28;20502;-69
2022/04/24 12:32:38;;;;;;;2.13;0.30;;;16.90;99.90;;;;;;5022215;28;20113;-69
2022/04/24 12:35:06;;;;;;;1.45;0.60;;;16.90;99.90;;;;;;5040075;28;20022;-69
2022/04/24 12:37:34;;;;;;;1.48;0.40;;;16.90;99.90;;;;;;5012913;28;20026;-69
2022/04/24 12:40:02;;;;;;;5.55;0.70;;;16.80;99.90;;;;;;5027527;28;20477;-69
2022/04/24 12:42:30;;;;;;;2.13;0.60;;;16.70;99.90;;;;;;5029962;28;20499;-69
2022/04/24 12:44:57;;;;;;;4.65;0.52;;;16.80;99.90;;;;;;5032905;28;20113;-69
2022/04/24 12:47:25;;;;;;;2.40;0.50;;;16.90;99.90;;;;;;5032056;28;20040;-69
2022/04/24 12:49:53;;;;;;;2.70;0.57;;;16.90;99.90;;;;;;5018672;28;20517;-69
2022/04/24 12:52:21;;;;;;;3.72;0.50;;;16.80;99.90;;;;;;5030723;28;20052;-69
2022/04/24 12:54:51;;;;;;;2.58;1.02;;;16.70;99.90;;;;;;5027844;28;20041;-69
2022/04/24 12:57:18;;;;;;;3.75;0.70;;;16.60;99.90;;;;;;5026296;28;20036;-69
2022/04/24 12:59:45;;;;;;;1.55;0.70;;;16.50;99.90;;;;;;5012915;28;20054;-69
2022/04/24 13:02:13;;;;;;;4.85;0.75;;;16.70;99.90;;;;;;5030607;28;20146;-69
2022/04/24 13:04:40;;;;;;;1.88;0.50;;;16.70;99.90;;;;;;5032567;28;20106;-69
2022/04/24 13:07:08;;;;;;;2.67;0.98;;;16.70;99.90;;;;;;5032664;28;20028;-69